Time;durP1;ratioP1;P1;durP2;ratioP2;P2;SDS_P1;SDS_P2;PMS_P1;PMS_P2;Temp;Humidity;BMP_temperature;BMP_pressure;BME280_temperature;BME280_humidity;BME280_pressure;Samples;Min_cycle;Max_cycle;Signal;HPM_P1;HPM_P2
2022/10/24 00:00:13;;;;;;;25.98;11.40;;;;;;;7.98;78.69;98800.19;4945217;28;20283;-90
2022/10/24 00:05:26;;;;;;;24.33;11.05;;;;;;;8.34;78.72;98826.53;4959977;28;20047;-92
2022/10/24 00:07:52;;;;;;;28.23;11.30;;;;;;;8.09;78.32;98790.66;4944781;28;20130;-93
2022/10/24 00:10:19;;;;;;;20.75;10.02;;;;;;;8.18;77.67;98829.66;4946593;28;20039;-91
2022/10/24 00:12:46;;;;;;;27.17;11.00;;;;;;;7.72;78.24;98746.38;4925882;29;20413;-94
2022/10/24 00:15:13;;;;;;;25.48;10.32;;;;;;;8.06;77.70;98799.44;4927466;29;20046;-92
2022/10/24 00:17:40;;;;;;;23.45;10.20;;;;;;;7.97;78.10;98785.75;4943342;28;20047;-90
2022/10/24 00:20:07;;;;;;;23.20;10.25;;;;;;;7.97;77.64;98787.69;4959920;28;20123;-93
2022/10/24 00:22:33;;;;;;;19.33;9.45;;;;;;;7.86;77.50;98778.97;4970274;28;20061;-93
2022/10/24 00:24:59;;;;;;;19.73;8.82;;;;;;;8.09;77.35;98819.81;4976384;28;20043;-93
2022/10/24 00:27:25;;;;;;;20.70;8.98;;;;;;;7.76;77.22;98762.88;4944245;28;20042;-90
2022/10/24 00:29:51;;;;;;;17.38;8.63;;;;;;;7.84;77.24;98775.72;4959590;28;20038;-90
2022/10/24 00:32:17;;;;;;;18.42;8.48;;;;;;;7.82;76.88;98774.44;4944794;28;20078;-92
2022/10/24 00:34:43;;;;;;;12.15;7.13;;;;;;;7.90;76.00;98798.19;4960356;28;20046;-91
2022/10/24 00:47:14;;;;;;;15.82;7.45;;;;;;;7.76;75.00;98777.28;4977508;28;20049;-92
2022/10/24 00:50:04;;;;;;;18.38;8.30;;;;;;;8.07;74.14;98806.50;4929376;28;20074;-90
2022/10/24 00:52:40;;;;;;;16.25;8.32;;;;;;;7.58;74.30;98748.31;4961213;28;20504;-90
2022/10/24 00:55:09;;;;;;;14.50;7.68;;;;;;;7.56;74.45;98779.66;4961113;28;20568;-94
2022/10/24 00:57:43;;;;;;;19.55;8.30;;;;;;;7.53;74.43;98773.72;4952868;28;20042;-90
2022/10/24 01:02:39;;;;;;;14.57;7.90;;;;;;;7.53;74.67;98772.91;4978226;28;20110;-92
2022/10/24 01:05:07;;;;;;;21.35;8.45;;;;;;;7.64;74.48;98779.72;4931537;28;20039;-91
2022/10/24 01:08:09;;;;;;;18.17;9.07;;;;;;;7.91;74.44;98805.25;4960542;28;20113;-93
2022/10/24 01:10:59;;;;;;;18.67;8.90;;;;;;;7.49;74.41;98756.41;4975922;28;20587;-91
2022/10/24 01:13:44;;;;;;;27.55;10.02;;;;;;;7.74;73.74;98797.72;4942968;28;20125;-90
2022/10/24 01:16:36;;;;;;;20.73;9.02;;;;;;;7.79;73.93;98805.78;4959253;28;20039;-92
2022/10/24 01:19:25;;;;;;;20.50;10.23;;;;;;;7.82;72.81;98810.63;4946334;28;20039;-89
2022/10/24 01:24:20;;;;;;;19.90;9.48;;;;;;;7.88;73.29;98811.28;4977492;28;20045;-90
2022/10/24 01:26:58;;;;;;;21.77;10.13;;;;;;;7.41;72.99;98751.69;4944384;28;20047;-89
2022/10/24 01:29:43;;;;;;;22.65;9.55;;;;;;;7.83;72.22;98823.09;4976732;28;20054;-92
2022/10/24 01:32:17;;;;;;;21.17;10.20;;;;;;;7.84;72.08;98830.16;4928905;28;20046;-89
2022/10/24 01:34:49;;;;;;;24.60;10.07;;;;;;;7.55;72.81;98789.75;4941903;28;20046;-91
2022/10/24 01:37:22;;;;;;;23.13;11.13;;;;;;;7.59;72.19;98796.19;4958233;28;20051;-91
2022/10/24 01:39:55;;;;;;;20.00;10.15;;;;;;;7.72;72.99;98803.50;4942765;28;20050;-92
2022/10/24 01:42:24;;;;;;;24.58;11.57;;;;;;;7.64;73.22;98820.53;4943192;28;20042;-89
2022/10/24 01:44:55;;;;;;;27.85;12.93;;;;;;;7.56;73.78;98795.97;4958911;28;20050;-92
2022/10/24 01:47:28;;;;;;;26.77;11.35;;;;;;;7.52;73.00;98790.34;4959148;28;20060;-92
2022/10/24 01:52:30;;;;;;;26.27;12.02;;;;;;;7.41;73.95;98769.91;4976062;28;20039;-92
2022/10/24 01:54:56;;;;;;;24.30;11.20;;;;;;;7.46;73.61;98775.25;4942471;28;20456;-92
2022/10/24 01:57:27;;;;;;;27.50;12.63;;;;;;;7.43;72.92;98767.69;4942021;28;20041;-92
2022/10/24 02:02:28;;;;;;;22.92;11.27;;;;;;;7.54;72.86;98807.94;4975062;28;20046;-90
2022/10/24 02:05:23;;;;;;;27.15;12.52;;;;;;;7.38;73.42;98767.81;4957676;28;20066;-91
2022/10/24 02:13:10;;;;;;;32.45;12.93;;;;;;;7.43;72.94;98773.13;4974825;28;20653;-90
2022/10/24 02:15:43;;;;;;;29.58;12.52;;;;;;;7.28;73.00;98750.63;4926098;28;20039;-91
2022/10/24 02:18:11;;;;;;;32.53;13.52;;;;;;;7.33;73.19;98767.94;4946993;28;20039;-93
2022/10/24 02:20:45;;;;;;;33.03;13.70;;;;;;;7.68;73.33;98827.00;4925995;28;20580;-88
2022/10/24 02:23:44;;;;;;;30.05;13.60;;;;;;;7.59;73.66;98812.50;4943108;28;20133;-91
2022/10/24 02:26:16;;;;;;;37.03;14.05;;;;;;;7.44;73.37;98786.41;4957696;28;20141;-91
2022/10/24 02:36:18;;;;;;;30.48;13.98;;;;;;;7.48;73.38;98811.09;4974702;28;20034;-89
2022/10/24 02:41:19;;;;;;;27.58;12.80;;;;;;;7.53;73.63;98794.66;4974278;28;20130;-93
2022/10/24 02:43:48;;;;;;;29.40;13.65;;;;;;;7.79;73.35;98846.59;4940636;28;20042;-90
2022/10/24 02:48:49;;;;;;;34.65;15.40;;;;;;;7.33;74.09;98803.28;4974707;28;20122;-89
2022/10/24 02:51:18;;;;;;;36.58;15.10;;;;;;;7.63;73.76;98843.41;4958005;28;20046;-91
2022/10/24 02:58:41;;;;;;;41.05;16.67;;;;;;;7.06;74.14;98796.75;4975791;28;20505;-93
2022/10/24 03:01:07;;;;;;;33.55;15.07;;;;;;;7.03;74.37;98797.34;4957394;28;20432;-89
2022/10/24 03:08:34;;;;;;;41.55;17.73;;;;;;;7.13;74.79;98815.38;4974558;28;20034;-92
2022/10/24 03:11:00;;;;;;;;;;;;;;;7.38;74.72;98854.81;4959733;28;20456;-94
2022/10/24 03:13:27;;;;;;;47.87;17.13;;;;;;;7.17;74.55;98833.47;4964268;28;19922;-91
2022/10/24 03:18:22;;;;;;;43.97;17.38;;;;;;;7.24;75.13;98850.19;4979394;28;20472;-92
2022/10/24 03:20:48;;;;;;;51.78;17.13;;;;;;;7.14;75.47;98847.66;4952151;28;20054;-93
2022/10/24 03:25:43;;;;;;;44.83;17.58;;;;;;;7.08;75.39;98813.53;4978216;28;20411;-90
2022/10/24 03:28:09;;;;;;;43.60;17.20;;;;;;;6.95;75.80;98819.78;4961947;28;20054;-93
2022/10/24 03:30:35;;;;;;;36.28;15.50;;;;;;;6.83;75.96;98810.22;4967155;28;20042;-91
2022/10/24 03:35:31;;;;;;;37.40;15.70;;;;;;;7.16;76.16;98844.66;4999196;28;20066;-89
2022/10/24 03:40:27;;;;;;;35.55;15.07;;;;;;;7.16;77.45;98848.19;4959695;29;20039;-90
2022/10/24 03:42:53;;;;;;;39.58;14.32;;;;;;;7.22;77.13;98865.22;4925981;29;20043;-91
2022/10/24 03:45:19;;;;;;;36.97;15.30;;;;;;;7.05;77.24;98835.88;4968132;28;20046;-90
2022/10/24 03:48:05;;;;;;;35.90;14.27;;;;;;;6.97;77.22;98837.38;4976136;28;20429;-91
2022/10/24 03:50:32;;;;;;;36.35;14.43;;;;;;;7.26;77.43;98886.03;4937852;29;20046;-91
2022/10/24 03:52:58;;;;;;;38.05;13.68;;;;;;;7.10;77.04;98860.25;4925677;29;20098;-90
2022/10/24 03:55:26;;;;;;;40.35;14.93;;;;;;;6.94;77.48;98845.34;4926865;29;20067;-95
2022/10/24 03:57:52;;;;;;;31.30;13.75;;;;;;;7.06;77.12;98851.91;4977163;28;20081;-94
2022/10/24 04:00:19;;;;;;;33.20;13.13;;;;;;;7.05;76.69;98865.78;4986052;28;20031;-90
2022/10/24 04:02:46;;;;;;;33.80;13.18;;;;;;;7.03;76.60;98848.97;4963483;28;20043;-95
2022/10/24 04:07:42;;;;;;;24.90;12.38;;;;;;;7.35;76.20;98904.34;4976826;28;20121;-91
2022/10/24 04:10:08;;;;;;;;;;;;;;;7.30;76.95;98908.78;4946598;29;20063;-92
2022/10/24 04:12:35;;;;;;;32.30;12.32;;;;;;;6.98;76.97;98863.44;4965364;28;19922;-90
2022/10/24 04:15:02;;;;;;;26.95;12.07;;;;;;;7.17;76.56;98892.47;4961014;28;20042;-93
2022/10/24 04:17:31;;;;;;;28.73;11.75;;;;;;;6.97;76.58;98853.69;4980758;28;20074;-94
2022/10/24 04:19:57;;;;;;;21.80;10.35;;;;;;;6.88;76.85;98863.63;4942350;28;20424;-92
2022/10/24 04:22:23;;;;;;;27.15;11.40;;;;;;;7.14;77.16;98918.34;4942476;29;20047;-90
2022/10/24 04:24:50;;;;;;;24.95;12.38;;;;;;;7.14;77.76;98907.47;4966014;28;20050;-89
2022/10/24 04:27:16;;;;;;;22.90;11.25;;;;;;;7.09;77.47;98885.03;4960088;28;20528;-89
2022/10/24 04:29:45;;;;;;;23.10;10.95;;;;;;;7.16;77.25;98907.19;4954723;28;20085;-92
2022/10/24 04:32:12;;;;;;;24.75;11.32;;;;;;;7.19;77.22;98906.59;4968403;28;20046;-92
2022/10/24 04:34:38;;;;;;;32.28;11.85;;;;;;;7.16;76.82;98907.97;4978976;28;20121;-92
2022/10/24 04:37:04;;;;;;;20.83;11.23;;;;;;;7.14;77.40;98907.47;4979023;28;20074;-93
2022/10/24 04:39:31;;;;;;;22.23;10.35;;;;;;;7.13;77.67;98911.28;4969130;28;20057;-93
2022/10/24 04:41:57;;;;;;;21.58;9.80;;;;;;;6.85;77.15;98866.16;4942330;29;20397;-92
2022/10/24 04:44:23;;;;;;;26.83;11.25;;;;;;;7.22;77.07;98914.94;4925795;29;20058;-88
2022/10/24 04:46:50;;;;;;;21.60;10.52;;;;;;;7.38;77.07;98925.50;4966213;28;20042;-88
2022/10/24 04:49:16;;;;;;;22.48;9.65;;;;;;;7.43;76.27;98918.06;4982800;28;20043;-86
2022/10/24 04:51:42;;;;;;;23.23;11.05;;;;;;;7.51;76.53;98930.94;4996401;28;20050;-85
2022/10/24 04:54:08;;;;;;;23.23;10.32;;;;;;;7.56;75.79;98935.50;4995203;28;20051;-86
2022/10/24 04:56:34;;;;;;;20.33;10.77;;;;;;;7.62;75.96;98938.94;4978052;28;20042;-86
2022/10/24 04:59:00;;;;;;;20.08;9.80;;;;;;;7.72;76.35;98941.44;4963412;28;20055;-88
2022/10/24 05:01:26;;;;;;;20.20;9.88;;;;;;;7.80;75.70;98954.31;4974681;29;20031;-86
2022/10/24 05:03:53;;;;;;;24.95;9.75;;;;;;;7.43;75.95;98900.94;4961166;29;20118;-86
2022/10/24 05:06:19;;;;;;;28.20;10.30;;;;;;;7.52;76.02;98920.91;4923334;29;20116;-87
2022/10/24 05:08:45;;;;;;;21.38;9.68;;;;;;;7.82;75.91;98967.66;4956710;28;20087;-87
2022/10/24 05:11:11;;;;;;;17.10;9.02;;;;;;;7.33;75.92;98917.47;4956323;28;20043;-86
2022/10/24 05:13:38;;;;;;;21.75;9.35;;;;;;;7.60;75.53;98955.53;4938336;29;20043;-87
2022/10/24 05:16:05;;;;;;;17.20;8.73;;;;;;;7.54;75.64;98935.78;4958822;28;20066;-86
2022/10/24 05:18:31;;;;;;;;;;;;;;;7.82;75.25;98987.50;4955179;28;20049;-85
2022/10/24 05:21:00;;;;;;;16.20;7.13;;;;;;;7.75;74.56;98984.38;4952882;29;19922;-86
2022/10/24 05:23:27;;;;;;;21.30;8.73;;;;;;;7.70;75.11;98995.34;4954123;29;20082;-86
2022/10/24 05:25:53;;;;;;;21.50;9.10;;;;;;;7.62;75.86;98999.56;4953511;29;20077;-90
2022/10/24 05:28:19;;;;;;;15.43;7.97;;;;;;;7.45;75.75;98964.81;4936286;29;20039;-85
2022/10/24 05:30:45;;;;;;;17.30;8.88;;;;;;;7.38;75.78;98937.19;4954708;28;20043;-89
2022/10/24 05:33:12;;;;;;;14.45;7.47;;;;;;;7.50;75.62;98953.81;4956422;28;20042;-94
2022/10/24 05:35:38;;;;;;;17.33;7.65;;;;;;;7.50;74.87;98948.38;4940727;29;20436;-92
2022/10/24 05:38:04;;;;;;;17.70;8.05;;;;;;;7.19;74.50;98922.88;4958010;28;20058;-89
2022/10/24 05:40:30;;;;;;;19.17;8.50;;;;;;;7.57;75.56;98994.22;4976248;28;20038;-91
2022/10/24 05:42:56;;;;;;;13.35;7.03;;;;;;;7.27;75.38;98939.28;4940682;28;20054;-93
2022/10/24 05:45:23;;;;;;;16.58;7.60;;;;;;;7.56;75.39;98968.13;4944518;28;20043;-89
2022/10/24 05:47:50;;;;;;;36.92;8.68;;;;;;;7.79;74.48;99023.47;4959745;28;20045;-95
2022/10/24 05:50:16;;;;;;;17.00;6.95;;;;;;;7.41;75.12;98968.41;4974465;28;20050;-91
2022/10/24 05:52:43;;;;;;;83.60;12.35;;;;;;;7.36;74.33;98957.66;4961370;28;20039;-93
2022/10/24 05:55:09;;;;;;;38.37;8.70;;;;;;;7.38;74.59;98990.75;4944867;28;20138;-90
2022/10/24 05:57:37;;;;;;;33.40;8.23;;;;;;;7.27;75.07;98971.91;4951987;28;20050;-92
2022/10/24 06:00:06;;;;;;;34.50;8.27;;;;;;;7.56;74.82;99008.13;4960878;28;20051;-94
2022/10/24 06:02:38;;;;;;;36.30;8.43;;;;;;;7.59;74.83;99002.09;4958027;28;20047;-91
2022/10/24 06:05:07;;;;;;;86.13;13.85;;;;;;;7.71;73.91;99007.81;4960897;28;20051;-93
2022/10/24 06:07:34;;;;;;;19.80;9.13;;;;;;;7.87;74.39;99014.59;4974234;28;20102;-90
2022/10/24 06:10:02;;;;;;;217.15;18.70;;;;;;;7.98;73.70;99023.38;4956363;28;20046;-92
2022/10/24 06:12:29;;;;;;;79.28;12.60;;;;;;;7.81;73.76;98985.06;4957984;28;20137;-92
2022/10/24 06:14:56;;;;;;;29.67;8.45;;;;;;;7.87;73.16;99006.44;4933928;28;20047;-90
2022/10/24 06:17:22;;;;;;;;;;;;;;;7.99;73.46;99041.31;4957958;28;20038;-91
2022/10/24 06:19:49;;;;;;;18.43;7.83;;;;;;;7.82;73.89;99013.91;4941575;28;19922;-91
2022/10/24 06:22:17;;;;;;;17.63;7.88;;;;;;;7.99;73.19;99039.41;4973330;28;20042;-92
2022/10/24 06:24:44;;;;;;;18.13;7.65;;;;;;;7.67;73.59;98999.47;4956914;28;20046;-90
2022/10/24 06:27:10;;;;;;;24.58;8.77;;;;;;;7.80;74.32;99021.56;4951075;28;20039;-90
2022/10/24 06:29:36;;;;;;;20.70;8.02;;;;;;;7.66;74.36;99003.31;4939755;28;20155;-91
2022/10/24 06:32:03;;;;;;;15.10;7.88;;;;;;;7.80;73.79;99024.28;4971370;28;20918;-90
2022/10/24 06:34:30;;;;;;;14.80;7.63;;;;;;;7.67;74.47;98996.75;4955456;28;20054;-87
2022/10/24 06:36:57;;;;;;;16.45;7.80;;;;;;;7.55;75.01;98991.00;4952296;28;20505;-90
2022/10/24 06:39:23;;;;;;;32.17;8.73;;;;;;;7.29;73.98;98974.34;4956294;28;20039;-88
2022/10/24 06:41:49;;;;;;;32.28;9.32;;;;;;;7.59;74.00;98986.56;4960345;28;20100;-90
2022/10/24 06:44:17;;;;;;;21.73;9.30;;;;;;;7.66;74.51;99005.22;4940657;28;20243;-90
2022/10/24 06:46:43;;;;;;;41.47;9.07;;;;;;;7.49;74.16;98975.88;4955355;28;20038;-88
2022/10/24 06:49:11;;;;;;;36.05;10.07;;;;;;;7.80;73.86;99010.66;4968407;28;20042;-91
2022/10/24 06:51:39;;;;;;;25.05;8.95;;;;;;;7.95;73.04;99029.44;4958750;28;20070;-91
2022/10/24 06:54:05;;;;;;;24.40;8.90;;;;;;;7.60;73.51;98966.41;4975503;28;20104;-90
2022/10/24 06:56:46;;;;;;;22.90;9.40;;;;;;;7.83;72.67;98975.50;4975055;28;20039;-90
2022/10/24 06:59:15;;;;;;;21.50;9.18;;;;;;;8.03;72.36;98987.06;4957533;28;20042;-91
2022/10/24 07:01:42;;;;;;;22.50;9.25;;;;;;;8.08;71.80;98990.50;4958838;28;20034;-92
2022/10/24 07:04:09;;;;;;;32.20;10.13;;;;;;;8.48;70.67;99053.41;4974998;28;20415;-89
2022/10/24 07:06:35;;;;;;;39.40;9.90;;;;;;;8.12;71.53;98998.88;4956012;28;20460;-90
2022/10/24 07:09:06;;;;;;;30.45;10.40;;;;;;;8.24;71.46;99015.47;4942681;28;20074;-89
2022/10/24 07:11:33;;;;;;;65.97;10.82;;;;;;;8.37;70.13;99008.41;4941151;28;20039;-88
2022/10/24 07:13:59;;;;;;;;;;;;;;;8.74;68.55;99058.28;4957310;28;20149;-94
2022/10/24 07:16:26;;;;;;;18.67;8.83;;;;;;;8.53;69.35;99019.78;4978816;28;19962;-90
2022/10/24 07:18:52;;;;;;;22.38;8.70;;;;;;;8.76;68.33;99047.91;4931223;28;20394;-92
2022/10/24 07:21:29;;;;;;;32.58;9.65;;;;;;;8.63;68.46;98995.03;4956282;28;20066;-95
2022/10/24 07:23:56;;;;;;;;;;;;;;;9.09;69.30;99060.19;4931990;28;20508;-90
2022/10/24 07:26:24;;;;;;;16.98;8.35;;;;;;;9.02;67.17;99065.28;4976981;28;19922;-89
2022/10/24 07:28:54;;;;;;;20.75;8.18;;;;;;;8.72;67.69;99033.28;4963773;28;20042;-93
2022/10/24 07:31:25;;;;;;;20.08;8.00;;;;;;;8.79;67.42;99064.44;4966167;28;20111;-89
2022/10/24 07:33:53;;;;;;;27.88;9.43;;;;;;;8.11;66.82;98991.78;4942255;28;20520;-89
2022/10/24 07:36:22;;;;;;;14.90;8.15;;;;;;;8.45;67.20;99045.84;4925692;28;20125;-92
2022/10/24 07:38:52;;;;;;;22.67;8.48;;;;;;;8.64;67.29;99068.31;4940595;28;20039;-87
2022/10/24 07:41:23;;;;;;;42.08;9.32;;;;;;;8.55;65.61;99023.03;4970840;28;20050;-89
2022/10/24 07:43:55;;;;;;;50.83;11.88;;;;;;;8.83;64.72;99045.53;4940958;28;20041;-88
2022/10/24 07:46:24;;;;;;;116.50;14.98;;;;;;;8.61;64.12;99025.34;4941994;28;20089;-89
2022/10/24 07:48:52;;;;;;;49.25;11.43;;;;;;;8.44;64.88;99020.53;4941706;29;20039;-91
2022/10/24 07:51:19;;;;;;;105.00;16.40;;;;;;;8.91;64.72;99063.91;4943046;28;20089;-91
2022/10/24 07:53:47;;;;;;;47.92;10.30;;;;;;;8.83;64.57;99045.53;4957059;28;20055;-95
2022/10/24 07:56:14;;;;;;;;;;;;;;;9.21;64.12;99080.66;4933062;28;20066;-90
2022/10/24 07:58:42;;;;;;;;;;;;;;;9.18;63.87;99077.44;4960002;28;20380;-88
2022/10/24 08:01:16;;;;;;;99.38;12.85;;;;;;;8.90;63.55;99030.38;4959866;28;19921;-90
2022/10/24 08:03:47;;;;;;;15.18;7.63;;;;;;;8.89;62.46;99061.47;4972646;28;20126;-92
2022/10/24 08:06:17;;;;;;;43.33;8.57;;;;;;;8.91;63.17;99051.06;4945151;28;20061;-91
2022/10/24 08:08:44;;;;;;;19.73;8.88;;;;;;;9.42;62.92;99089.94;4961516;28;20042;-92
2022/10/24 08:11:37;;;;;;;;;;;;;;;9.60;61.57;99094.41;4952649;28;20018;-95
2022/10/24 08:14:05;;;;;;;17.13;7.75;;;;;;;9.40;61.83;99064.88;4958471;29;20007;-92
2022/10/24 08:16:43;;;;;;;15.05;7.53;;;;;;;9.18;60.57;99036.53;4908859;29;20098;-92
2022/10/24 08:19:42;;;;;;;13.52;7.38;;;;;;;9.65;60.03;99104.38;4937480;29;20035;-93
2022/10/24 08:22:15;;;;;;;23.08;7.75;;;;;;;9.59;60.46;99086.53;4932665;29;20130;-93
2022/10/24 08:24:43;;;;;;;22.10;6.35;;;;;;;9.24;58.90;99060.94;4949346;29;20563;-91
2022/10/24 08:27:10;;;;;;;22.77;6.95;;;;;;;9.00;59.05;99040.22;4938026;29;20051;-92
2022/10/24 08:29:38;;;;;;;72.03;12.10;;;;;;;8.80;60.02;99035.25;4954068;29;20044;-89
2022/10/24 08:32:05;;;;;;;152.30;13.45;;;;;;;9.15;59.89;99083.50;4936246;29;20074;-92
2022/10/24 08:34:36;;;;;;;26.33;7.60;;;;;;;9.05;60.85;99069.31;4951294;29;20058;-91
2022/10/24 08:37:05;;;;;;;45.97;9.70;;;;;;;9.23;58.70;99092.84;4944253;29;20482;-91
2022/10/24 08:39:31;;;;;;;11.95;6.82;;;;;;;9.11;59.60;99049.00;4917287;29;20055;-91
2022/10/24 08:42:04;;;;;;;50.38;8.75;;;;;;;9.30;60.38;99078.78;4940503;29;20052;-93
2022/10/24 08:44:36;;;;;;;37.72;7.65;;;;;;;9.42;60.43;99092.69;4916349;29;20055;-93
2022/10/24 08:47:48;;;;;;;43.88;7.88;;;;;;;9.10;60.21;99056.34;4931740;29;20043;-92
2022/10/24 08:50:29;;;;;;;30.80;7.68;;;;;;;9.50;60.55;99102.84;4945947;28;20035;-88
2022/10/24 08:53:00;;;;;;;20.58;6.93;;;;;;;9.41;61.12;99094.59;4921156;29;20047;-88
2022/10/24 08:55:41;;;;;;;12.93;6.38;;;;;;;9.63;60.59;99132.00;4936206;29;20050;-87
2022/10/24 08:58:20;;;;;;;24.60;7.00;;;;;;;9.41;61.52;99085.63;4946709;29;20048;-88
2022/10/24 09:00:49;;;;;;;57.38;11.07;;;;;;;9.68;60.69;99114.69;4954105;29;20047;-88
2022/10/24 09:03:42;;;;;;;78.43;9.75;;;;;;;9.60;60.42;99102.59;4957533;29;20043;-92
2022/10/24 09:06:16;;;;;;;39.53;7.15;;;;;;;9.52;60.11;99110.72;4932431;29;20043;-88
2022/10/24 09:08:58;;;;;;;21.20;4.85;;;;;;;9.13;59.80;99091.16;4950693;28;20051;-89
2022/10/24 09:11:44;;;;;;;17.85;5.57;;;;;;;9.55;60.79;99162.75;4949068;29;20123;-90
2022/10/24 09:14:37;;;;;;;7.85;3.95;;;;;;;9.05;60.04;99121.13;4931487;29;20039;-89
2022/10/24 09:17:30;;;;;;;11.13;4.57;;;;;;;8.98;61.68;99134.38;4909950;29;20502;-91
2022/10/24 09:20:02;;;;;;;13.98;5.57;;;;;;;9.13;62.25;99164.78;4936108;29;20114;-84
2022/10/24 09:22:34;;;;;;;11.30;4.82;;;;;;;9.20;62.50;99160.84;4935856;29;20055;-88
2022/10/24 09:25:05;;;;;;;8.27;5.07;;;;;;;9.37;62.76;99174.63;4903231;29;20086;-89
2022/10/24 09:27:35;;;;;;;11.23;5.00;;;;;;;9.48;62.17;99178.75;4918842;29;20043;-86
2022/10/24 09:30:02;;;;;;;9.25;4.80;;;;;;;9.10;62.46;99159.97;4903277;29;20044;-88
2022/10/24 09:32:32;;;;;;;9.75;5.13;;;;;;;9.03;64.14;99150.59;4946832;28;20042;-86
2022/10/24 09:35:16;;;;;;;11.63;5.28;;;;;;;9.16;64.30;99169.63;4972947;28;20070;-86
2022/10/24 09:37:54;;;;;;;12.93;5.40;;;;;;;9.10;66.17;99161.88;4982914;28;20054;-86
2022/10/24 09:40:25;;;;;;;9.70;5.50;;;;;;;9.45;64.91;99192.19;4993527;28;20065;-87
2022/10/24 09:43:30;;;;;;;7.45;5.07;;;;;;;9.61;63.85;99188.81;4954761;28;20357;-86
2022/10/24 09:46:16;;;;;;;14.82;5.53;;;;;;;9.51;64.70;99166.41;4955389;28;20073;-86
2022/10/24 09:48:55;;;;;;;13.68;6.20;;;;;;;9.79;65.36;99188.91;4947529;28;20074;-86
2022/10/24 09:51:32;;;;;;;12.13;5.28;;;;;;;9.86;65.36;99198.28;4955344;28;20125;-88
2022/10/24 09:54:07;;;;;;;11.02;5.85;;;;;;;9.86;64.45;99181.91;4954509;29;20057;-87
2022/10/24 09:56:40;;;;;;;10.80;5.20;;;;;;;9.99;63.69;99201.25;4937310;29;20050;-87
2022/10/24 09:59:36;;;;;;;14.73;5.55;;;;;;;9.81;63.23;99195.69;4954326;29;20050;-87
2022/10/24 10:02:33;;;;;;;14.95;5.80;;;;;;;9.89;62.82;99202.31;4954841;28;20046;-85
2022/10/24 10:05:02;;;;;;;11.23;5.05;;;;;;;9.88;62.09;99206.97;4927827;28;20054;-87
2022/10/24 10:07:39;;;;;;;12.05;5.18;;;;;;;9.79;59.94;99213.50;4976279;28;20077;-88
2022/10/24 10:10:32;;;;;;;28.33;5.35;;;;;;;9.35;59.94;99185.06;4991765;28;20157;-87
2022/10/24 10:13:22;;;;;;;10.88;4.15;;;;;;;9.12;58.12;99176.84;4981975;28;20046;-90
2022/10/24 10:16:01;;;;;;;12.27;4.57;;;;;;;9.37;58.91;99215.56;4953860;28;20469;-87
2022/10/24 10:18:37;;;;;;;21.85;4.47;;;;;;;9.22;57.61;99207.72;4954065;28;20568;-86
2022/10/24 10:21:20;;;;;;;12.30;4.07;;;;;;;9.06;57.58;99208.03;4954020;28;20046;-88
2022/10/24 10:23:49;;;;;;;7.40;4.10;;;;;;;8.75;56.90;99201.63;4975613;28;20519;-88
2022/10/24 10:26:28;;;;;;;24.48;4.03;;;;;;;8.96;56.72;99218.38;4992770;28;20050;-87
2022/10/24 10:29:15;;;;;;;10.57;4.57;;;;;;;9.02;56.32;99222.59;4975187;28;20046;-88
2022/10/24 10:31:45;;;;;;;11.60;4.93;;;;;;;9.09;56.63;99212.88;4944179;28;20085;-89
2022/10/24 10:34:28;;;;;;;7.18;3.92;;;;;;;9.37;56.80;99216.38;4971813;28;20038;-87
2022/10/24 10:37:22;;;;;;;12.65;4.15;;;;;;;9.56;55.40;99207.22;4991366;28;20468;-87
2022/10/24 10:40:15;;;;;;;11.60;4.13;;;;;;;9.70;55.60;99220.81;4975664;28;20531;-88
2022/10/24 10:43:23;;;;;;;10.63;4.18;;;;;;;9.55;54.53;99233.69;4974379;28;20408;-89
2022/10/24 10:45:58;;;;;;;15.30;3.92;;;;;;;9.48;52.12;99225.13;4973722;28;20053;-89
2022/10/24 10:49:01;;;;;;;8.63;3.03;;;;;;;9.52;52.68;99217.13;4955751;28;20050;-87
2022/10/24 10:51:56;;;;;;;5.63;3.42;;;;;;;9.68;51.27;99237.50;4971860;28;20042;-88
2022/10/24 10:54:37;;;;;;;5.20;2.90;;;;;;;9.68;51.70;99236.69;4936529;29;20537;-88
2022/10/24 10:57:30;;;;;;;6.10;2.85;;;;;;;9.18;50.83;99215.72;4920984;29;20043;-88
2022/10/24 11:00:01;;;;;;;12.98;3.05;;;;;;;9.47;50.49;99244.53;4927585;29;20054;-86
2022/10/24 11:02:49;;;;;;;28.15;3.47;;;;;;;9.51;50.52;99242.81;4970388;28;20686;-88
2022/10/24 11:05:35;;;;;;;7.97;3.22;;;;;;;9.58;50.02;99222.16;4954710;28;20089;-85
2022/10/24 11:08:18;;;;;;;23.63;3.63;;;;;;;9.63;49.62;99238.44;4952356;29;20039;-85
2022/10/24 11:10:58;;;;;;;8.52;3.13;;;;;;;9.47;50.12;99229.00;4988552;28;20100;-86
2022/10/24 11:13:34;;;;;;;17.25;3.40;;;;;;;9.77;49.65;99232.13;4971294;28;20421;-87
2022/10/24 11:16:09;;;;;;;23.70;3.72;;;;;;;9.74;49.13;99222.63;4936391;29;20474;-84
2022/10/24 11:21:10;;;;;;;13.48;3.92;;;;;;;9.58;49.09;99221.38;4964979;28;20070;-86
2022/10/24 11:23:53;;;;;;;13.23;3.35;;;;;;;9.67;49.95;99237.78;4965575;28;20039;-86
2022/10/24 11:26:26;;;;;;;15.68;3.85;;;;;;;9.80;48.68;99242.41;4964280;28;20043;-86
2022/10/24 11:29:15;;;;;;;5.88;2.65;;;;;;;9.79;48.31;99208.84;4939340;28;20035;-89
2022/10/24 11:31:47;;;;;;;25.13;3.83;;;;;;;10.00;49.61;99235.63;4956923;28;20042;-87
2022/10/24 11:34:31;;;;;;;41.58;4.82;;;;;;;10.09;49.33;99248.22;4961207;28;20049;-88
2022/10/24 11:37:06;;;;;;;5.32;3.47;;;;;;;10.04;50.05;99234.72;4955094;28;20062;-89
2022/10/24 11:39:36;;;;;;;11.10;3.22;;;;;;;9.94;50.17;99224.06;4939785;29;20039;-87
2022/10/24 11:42:16;;;;;;;7.10;3.20;;;;;;;10.30;51.48;99245.03;4939168;29;20047;-90
2022/10/24 11:44:54;;;;;;;32.17;5.47;;;;;;;10.22;49.80;99252.00;4939554;29;20077;-85
2022/10/24 11:47:23;;;;;;;21.65;4.25;;;;;;;10.18;49.76;99244.75;4942223;28;20039;-85
2022/10/24 11:49:57;;;;;;;20.30;4.18;;;;;;;9.59;48.92;99228.44;4942200;29;20075;-84
2022/10/24 11:52:30;;;;;;;17.75;3.47;;;;;;;9.15;50.29;99203.50;4939334;29;20117;-86
2022/10/24 11:55:14;;;;;;;17.15;3.65;;;;;;;9.41;49.84;99238.41;4939334;29;20043;-87
2022/10/24 11:57:44;;;;;;;12.93;3.10;;;;;;;9.27;50.62;99262.97;4939169;29;20043;-85
2022/10/24 12:00:20;;;;;;;19.42;3.10;;;;;;;9.35;49.69;99269.63;4952486;29;20039;-86
2022/10/24 12:03:12;;;;;;;13.57;3.08;;;;;;;9.14;49.22;99277.44;4939337;29;20064;-88
2022/10/24 12:06:35;;;;;;;21.40;3.45;;;;;;;9.07;48.11;99280.56;4956137;29;20091;-86
2022/10/24 12:09:26;;;;;;;17.35;4.10;;;;;;;8.96;48.50;99283.78;4915744;29;20044;-86
2022/10/24 12:12:08;;;;;;;30.08;3.17;;;;;;;8.75;47.72;99283.38;4900088;29;20044;-85
2022/10/24 12:15:35;;;;;;;13.55;3.13;;;;;;;8.70;47.69;99270.66;4906977;29;20047;-86
2022/10/24 12:18:09;;;;;;;34.70;4.00;;;;;;;8.72;48.53;99286.72;4855850;29;20129;-89
2022/10/24 12:20:37;;;;;;;15.43;3.38;;;;;;;8.56;48.22;99275.28;4867654;29;20060;-84
2022/10/24 12:23:04;;;;;;;12.10;3.25;;;;;;;8.51;46.24;99278.91;4875095;29;20048;-87
2022/10/24 12:25:34;;;;;;;33.05;4.35;;;;;;;8.32;46.79;99264.53;4888191;29;20060;-88
2022/10/24 12:28:06;;;;;;;37.47;6.60;;;;;;;8.51;47.59;99292.53;4883656;29;20060;-85
2022/10/24 12:30:35;;;;;;;16.63;3.65;;;;;;;8.66;46.88;99300.41;4914627;29;20036;-84
2022/10/24 12:33:02;;;;;;;34.80;3.55;;;;;;;8.73;46.76;99299.22;4899382;29;20080;-84
2022/10/24 12:35:29;;;;;;;8.10;3.33;;;;;;;8.80;46.64;99311.34;4888622;29;20045;-84
2022/10/24 12:37:59;;;;;;;17.08;2.78;;;;;;;8.78;45.97;99289.03;4898045;29;20044;-85
2022/10/24 12:40:43;;;;;;;11.90;3.90;;;;;;;8.96;45.60;99320.03;4909413;29;20056;-84
2022/10/24 12:43:28;;;;;;;13.52;2.95;;;;;;;9.00;46.47;99303.88;4908236;29;20162;-84
2022/10/24 12:46:00;;;;;;;23.60;3.93;;;;;;;9.03;44.77;99314.19;4906286;29;20075;-84
2022/10/24 12:48:35;;;;;;;9.55;2.38;;;;;;;8.87;43.63;99294.59;4909097;29;20394;-84
2022/10/24 12:51:22;;;;;;;9.35;2.40;;;;;;;8.93;43.15;99315.19;4908571;29;20051;-85
2022/10/24 12:54:15;;;;;;;10.90;2.53;;;;;;;8.74;41.33;99325.34;4905904;29;20592;-85
2022/10/24 12:56:51;;;;;;;28.45;3.30;;;;;;;8.64;41.40;99338.09;4894043;29;20601;-85
2022/10/24 12:59:47;;;;;;;8.15;2.03;;;;;;;8.62;42.01;99334.84;4945717;28;20055;-85
2022/10/24 13:02:14;;;;;;;4.90;2.03;;;;;;;8.67;41.79;99333.94;4958490;28;20091;-85
2022/10/24 13:05:10;;;;;;;7.63;2.00;;;;;;;8.65;43.20;99323.34;4957891;28;20508;-84
2022/10/24 13:07:43;;;;;;;31.35;3.60;;;;;;;8.66;42.21;99330.41;4968945;28;20047;-85